This is the latest recevied weather packets stored in our database for station/object OE-11272. If no packets are shown the sender has not sent any weather packets the latest 10 day(s).
| Time | Temp. | Humidity | Pressure | Rain* | Wind** | Luminosity | Snow |
|---|---|---|---|---|---|---|---|
| 1787618496 | 15° C | 95% | 1015.8 hPa | 0 mm | - | 0 W/m² | - |
| 1787618124 | 15.56° C | 93% | 1015.5 hPa | 0 mm | - | 0 W/m² | - |
| 1787617524 | 15.56° C | 93% | 1015.6 hPa | 0 mm | - | 0 W/m² | - |
| 1787616697 | 15.56° C | 92% | 1015.7 hPa | 0 mm | - | 0 W/m² | - |
| 1787616324 | 16.11° C | 93% | 1015.9 hPa | 0 mm | - | 0 W/m² | - |
| 1787615724 | 15.56° C | 95% | 1016.3 hPa | 0 mm | - | 0 W/m² | - |
| 1787614896 | 16.11° C | 93% | 1016.2 hPa | 0 mm | - | 0 W/m² | - |
| 1787614524 | 16.11° C | 93% | 1016.2 hPa | 0 mm | - | 0 W/m² | - |
| 1787613924 | 16.11° C | 93% | 1016.5 hPa | 0 mm | - | 0 W/m² | - |
| 1787613324 | 15.56° C | 94% | 1016.7 hPa | 0 mm | - | 0 W/m² | - |
| 1787612723 | 16.11° C | 94% | 1016.7 hPa | 0 mm | - | 0 W/m² | - |
| 1787612124 | 16.11° C | 93% | 1016.9 hPa | 0 mm | - | 0 W/m² | - |
| 1787611297 | 16.11° C | 91% | 1017.1 hPa | 0 mm | - | 0 W/m² | - |
| 1787610923 | 16.67° C | 87% | 1016.9 hPa | 0 mm | - | 0 W/m² | - |
| 1787610324 | 16.67° C | 87% | 1016.9 hPa | 0 mm | - | 0 W/m² | - |
| 1787609497 | 16.67° C | 88% | 1017 hPa | 0 mm | - | 0 W/m² | - |
| 1787609124 | 17.22° C | 87% | 1016.8 hPa | 0 mm | - | 0 W/m² | - |
| 1787607697 | 17.78° C | 81% | 1016.5 hPa | 0 mm | - | 0 W/m² | - |
| 1787607324 | 17.78° C | 84% | 1016.5 hPa | 0 mm | - | 0 W/m² | - |
| 1787606723 | 17.78° C | 84% | 1016.6 hPa | 0 mm | - | 0 W/m² | - |
| 1787605897 | 18.33° C | 83% | 1016.5 hPa | 0 mm | - | 0 W/m² | - |
| 1787605524 | 18.33° C | 80% | 1016.2 hPa | 0 mm | - | 0 W/m² | - |
| 1787604924 | 18.33° C | 81% | 1016.3 hPa | 0 mm | - | 0 W/m² | - |
| 1787604097 | 18.33° C | 82% | 1016.2 hPa | 0 mm | - | 0 W/m² | - |
| 1787603724 | 18.33° C | 82% | 1016.2 hPa | 0 mm | - | 0 W/m² | - |
* Rain latest hour (hover to see other rain measurements)
** Current wind speed in m/s (hover to see current wind gust speed)